createdAt,value
2022-12-03T00:02:15.343Z,102558.94
2022-12-03T00:04:41.921Z,102556.34
2022-12-03T00:07:08.304Z,102555.47
2022-12-03T00:09:34.995Z,102553.72
2022-12-03T00:12:01.472Z,102546.81
2022-12-03T00:14:27.955Z,102547.69
2022-12-03T00:16:54.301Z,102550.22
2022-12-03T00:19:21.029Z,102547.56
2022-12-03T00:21:47.361Z,102544.94
2022-12-03T00:24:13.829Z,102543.13
2022-12-03T00:26:40.222Z,102541.34
2022-12-03T00:29:07.070Z,102543.91
2022-12-03T00:31:33.495Z,102545.63
2022-12-03T00:33:59.883Z,102541.31
2022-12-03T00:36:27.551Z,102546.53
2022-12-03T00:38:53.942Z,102550.03
2022-12-03T00:41:20.375Z,102549.09
2022-12-03T00:43:46.720Z,102549.94
2022-12-03T00:46:15.790Z,102542.97
2022-12-03T00:48:46.135Z,102555.06
2022-12-03T00:51:13.069Z,102543.81
2022-12-03T00:53:39.552Z,102542.88
2022-12-03T00:56:06.437Z,102536.81
2022-12-03T00:58:32.987Z,102535.91
2022-12-03T01:00:59.363Z,102542.81
2022-12-03T01:03:25.779Z,102546.28
2022-12-03T01:05:52.137Z,102549.78
2022-12-03T01:08:18.618Z,102552.31
2022-12-03T01:10:44.953Z,102554.00
2022-12-03T01:13:11.476Z,102553.91
2022-12-03T01:15:37.865Z,102557.34
2022-12-03T01:18:04.375Z,102553.00
2022-12-03T01:20:30.730Z,102556.41
2022-12-03T01:22:57.124Z,102556.38
2022-12-03T01:25:23.582Z,102556.31
2022-12-03T01:27:50.409Z,102557.16
2022-12-03T01:30:16.750Z,102561.47
2022-12-03T01:32:43.166Z,102561.44
2022-12-03T01:35:09.705Z,102563.13
2022-12-03T01:37:36.036Z,102566.56
2022-12-03T01:40:02.672Z,102569.16
2022-12-03T01:42:34.872Z,102563.06
2022-12-03T01:45:02.810Z,102556.13
2022-12-03T01:47:33.403Z,102563.84
2022-12-03T01:50:07.020Z,102562.09
2022-12-03T01:52:38.385Z,102566.38
2022-12-03T01:55:11.498Z,102569.81
2022-12-03T01:57:45.883Z,102566.28
2022-12-03T02:00:24.809Z,102560.22
2022-12-03T02:02:54.943Z,102561.91
2022-12-03T02:05:26.077Z,102557.53
2022-12-03T02:07:53.164Z,102562.63
2022-12-03T02:10:26.017Z,102560.94
2022-12-03T02:12:59.531Z,102559.28
2022-12-03T02:15:26.159Z,102565.34
2022-12-03T02:17:53.232Z,102566.16
2022-12-03T02:20:19.932Z,102564.38
2022-12-03T02:23:10.670Z,102560.13
2022-12-03T02:25:37.895Z,102565.22
2022-12-03T02:28:06.081Z,102564.34
2022-12-03T02:30:32.991Z,102561.75
2022-12-03T02:33:00.099Z,102566.91
2022-12-03T02:35:32.676Z,102564.28
2022-12-03T02:38:13.772Z,102568.50
2022-12-03T02:40:41.902Z,102563.28
2022-12-03T02:43:09.575Z,102563.25
2022-12-03T02:45:39.490Z,102568.41
2022-12-03T02:48:09.315Z,102565.84
2022-12-03T02:50:45.986Z,102564.09
2022-12-03T02:53:17.285Z,102556.28
2022-12-03T02:55:44.261Z,102558.84
2022-12-03T02:58:11.379Z,102568.34
2022-12-03T03:00:39.013Z,102567.47
2022-12-03T03:03:08.058Z,102554.44
2022-12-03T03:05:37.767Z,102559.63
2022-12-03T03:08:05.313Z,102553.56
2022-12-03T03:10:34.228Z,102557.88
2022-12-03T03:13:03.703Z,102552.66
2022-12-03T03:15:30.286Z,102560.44
2022-12-03T03:17:57.574Z,102554.34
2022-12-03T03:20:23.955Z,102556.94
2022-12-03T03:22:50.287Z,102554.38
2022-12-03T03:25:21.000Z,102558.69
2022-12-03T03:27:47.667Z,102556.06
2022-12-03T03:30:16.930Z,102549.06
2022-12-03T03:32:43.343Z,102552.53
2022-12-03T03:35:11.470Z,102546.47
2022-12-03T03:37:38.323Z,102543.88
2022-12-03T03:40:05.274Z,102542.97
2022-12-03T03:42:31.728Z,102548.13
2022-12-03T03:44:58.339Z,102548.13
2022-12-03T03:47:25.640Z,102546.38
2022-12-03T03:49:52.949Z,102541.16
2022-12-03T03:52:19.619Z,102540.34
2022-12-03T03:54:46.956Z,102534.31
2022-12-03T03:57:13.401Z,102535.16
2022-12-03T03:59:39.778Z,102522.22
2022-12-03T04:02:06.761Z,102524.81
2022-12-03T04:04:36.601Z,102524.81
2022-12-03T04:07:03.215Z,102525.69
2022-12-03T04:09:29.570Z,102529.13
2022-12-03T04:12:15.425Z,102524.75
2022-12-03T04:14:41.777Z,102532.47
2022-12-03T04:17:08.133Z,102530.72
2022-12-03T04:19:35.199Z,102531.56
2022-12-03T04:22:20.516Z,102525.47
2022-12-03T04:24:46.927Z,102533.22
2022-12-03T04:27:31.821Z,102529.78
2022-12-03T04:29:58.259Z,102540.13
2022-12-03T04:32:43.120Z,102527.19
2022-12-03T04:35:28.541Z,102528.06
2022-12-03T04:37:55.133Z,102524.59
2022-12-03T04:40:40.249Z,102526.34
2022-12-03T04:43:06.901Z,102528.06
2022-12-03T04:45:33.303Z,102522.81
2022-12-03T04:47:59.779Z,102523.59
2022-12-03T04:50:26.232Z,102523.56
2022-12-03T04:52:52.607Z,102526.09
2022-12-03T04:55:18.976Z,102521.75
2022-12-03T04:57:45.366Z,102529.53
2022-12-03T05:00:12.364Z,102530.41
2022-12-03T05:02:38.963Z,102531.31
2022-12-03T05:05:05.884Z,102533.94
2022-12-03T05:07:32.316Z,102533.03
2022-12-03T05:09:58.685Z,102533.00
2022-12-03T05:12:25.079Z,102530.38
2022-12-03T05:14:51.816Z,102529.50
2022-12-03T05:17:18.480Z,102532.91
2022-12-03T05:20:03.307Z,102524.25
2022-12-03T05:22:29.789Z,102524.22
2022-12-03T05:24:56.563Z,102519.91
2022-12-03T05:27:24.190Z,102522.50
2022-12-03T05:29:51.163Z,102513.00
2022-12-03T05:32:17.628Z,102508.63
2022-12-03T05:34:44.086Z,102522.44
2022-12-03T05:37:10.859Z,102517.25
2022-12-03T05:39:37.579Z,102518.13
2022-12-03T05:42:23.018Z,102515.53
2022-12-03T05:44:49.737Z,102518.97
2022-12-03T05:47:16.163Z,102523.31
2022-12-03T05:49:42.546Z,102513.75
2022-12-03T05:52:10.310Z,102514.59
2022-12-03T05:54:36.644Z,102518.88
2022-12-03T05:57:03.317Z,102511.03
2022-12-03T05:59:29.757Z,102513.53
2022-12-03T06:01:56.237Z,102517.75
2022-12-03T06:04:22.620Z,102516.00
2022-12-03T06:06:49.717Z,102515.13
2022-12-03T06:09:16.166Z,102506.47
2022-12-03T06:11:42.616Z,102509.84
2022-12-03T06:14:09.087Z,102506.34
2022-12-03T06:16:35.668Z,102506.34
2022-12-03T06:19:02.048Z,102515.84
2022-12-03T06:21:28.514Z,102510.63
2022-12-03T06:23:54.902Z,102497.66
2022-12-03T06:26:21.499Z,102502.81
2022-12-03T06:28:49.266Z,102499.38
2022-12-03T06:31:15.672Z,102495.94
2022-12-03T06:33:42.153Z,102495.94
2022-12-03T06:36:08.703Z,102498.50
2022-12-03T06:38:35.041Z,102493.25
2022-12-03T06:41:02.210Z,102494.97
2022-12-03T06:43:28.578Z,102494.13
2022-12-03T06:45:55.062Z,102499.28
2022-12-03T06:48:21.404Z,102500.94
2022-12-03T06:50:47.888Z,102503.50
2022-12-03T06:53:14.263Z,102510.50
2022-12-03T06:55:40.609Z,102512.16
2022-12-03T06:58:07.114Z,102513.88
2022-12-03T07:00:34.345Z,102510.41
2022-12-03T07:03:01.073Z,102507.84
2022-12-03T07:05:27.752Z,102511.28
2022-12-03T07:07:55.257Z,102505.31
2022-12-03T07:10:21.893Z,102507.94
2022-12-03T07:12:48.324Z,102512.28
2022-12-03T07:15:14.721Z,102515.78
2022-12-03T07:17:41.065Z,102515.78
2022-12-03T07:20:08.041Z,102512.31
2022-12-03T07:22:34.504Z,102512.28
2022-12-03T07:25:00.991Z,102506.13
2022-12-03T07:27:27.348Z,102510.53
2022-12-03T07:29:53.797Z,102511.41
2022-12-03T07:32:20.143Z,102514.03
2022-12-03T07:34:46.562Z,102520.13
2022-12-03T07:37:13.403Z,102504.69
2022-12-03T07:39:40.485Z,102499.50
2022-12-03T07:42:09.175Z,102497.78
2022-12-03T07:44:35.669Z,102499.50
2022-12-03T07:47:02.315Z,102503.78
2022-12-03T07:49:28.740Z,102498.59
2022-12-03T07:51:56.747Z,102499.38
2022-12-03T07:54:24.181Z,102510.63
2022-12-03T07:56:50.613Z,102510.66
2022-12-03T07:59:17.565Z,102510.66
2022-12-03T08:01:44.370Z,102491.78
2022-12-03T08:04:12.768Z,102499.56
2022-12-03T08:06:39.227Z,102497.00
2022-12-03T08:09:05.586Z,102500.59
2022-12-03T08:11:35.850Z,102490.28
2022-12-03T08:14:10.563Z,102485.19
2022-12-03T08:16:39.532Z,102487.91
2022-12-03T08:19:10.742Z,102489.69
2022-12-03T08:21:37.657Z,102494.97
2022-12-03T08:24:21.354Z,102490.81
2022-12-03T08:26:48.982Z,102493.47
2022-12-03T08:29:18.022Z,102486.69
2022-12-03T08:31:49.844Z,102483.44
2022-12-03T08:34:27.308Z,102482.72
2022-12-03T08:37:01.359Z,102478.44
2022-12-03T08:39:37.731Z,102490.63
2022-12-03T08:42:32.024Z,102481.31
2022-12-03T08:45:40.517Z,102490.13
2022-12-03T08:48:24.200Z,102487.63
2022-12-03T08:50:50.588Z,102485.91
2022-12-03T08:53:32.984Z,102472.06
2022-12-03T08:56:05.499Z,102465.16
2022-12-03T08:58:43.692Z,102467.75
2022-12-03T09:01:10.057Z,102466.06
2022-12-03T09:03:38.440Z,102461.81
2022-12-03T09:06:05.603Z,102464.59
2022-12-03T09:08:32.028Z,102456.06
2022-12-03T09:10:58.409Z,102464.84
2022-12-03T09:13:24.854Z,102453.75
2022-12-03T09:15:51.223Z,102457.34
2022-12-03T09:18:17.663Z,102460.88
2022-12-03T09:20:44.149Z,102451.47
2022-12-03T09:23:10.701Z,102451.72
2022-12-03T09:25:37.131Z,102452.78
2022-12-03T09:28:03.906Z,102442.50
2022-12-03T09:30:30.309Z,102446.84
2022-12-03T09:32:56.752Z,102441.69
2022-12-03T09:35:23.475Z,102447.72
2022-12-03T09:37:49.815Z,102441.56
2022-12-03T09:40:16.257Z,102436.31
2022-12-03T09:42:42.779Z,102435.34
2022-12-03T09:45:12.146Z,102442.97
2022-12-03T09:47:45.143Z,102447.94
2022-12-03T09:50:19.138Z,102435.78
2022-12-03T09:52:46.835Z,102441.81
2022-12-03T09:55:17.038Z,102440.09
2022-12-03T09:57:43.825Z,102441.00
2022-12-03T10:00:30.289Z,102435.84
2022-12-03T10:03:01.244Z,102429.09
2022-12-03T10:05:28.637Z,102428.50
2022-12-03T10:08:03.142Z,102426.94
2022-12-03T10:10:29.669Z,102423.47
2022-12-03T10:12:56.208Z,102427.69
2022-12-03T10:15:23.874Z,102408.53
2022-12-03T10:17:53.176Z,102418.75
2022-12-03T10:20:21.757Z,102415.19
2022-12-03T10:22:48.775Z,102412.44
2022-12-03T10:25:24.338Z,102411.53
2022-12-03T10:28:01.108Z,102407.22
2022-12-03T10:30:28.999Z,102414.19
2022-12-03T10:32:57.952Z,102413.31
2022-12-03T10:35:26.164Z,102412.47
2022-12-03T10:38:07.279Z,102414.25
2022-12-03T10:40:37.569Z,102409.03
2022-12-03T10:43:18.900Z,102413.34
2022-12-03T10:45:49.569Z,102405.56
2022-12-03T10:48:17.362Z,102395.31
2022-12-03T10:51:02.353Z,102397.13
2022-12-03T10:53:31.494Z,102396.34
2022-12-03T10:56:01.733Z,102396.34
2022-12-03T10:58:30.977Z,102397.16
2022-12-03T11:00:59.182Z,102398.88
2022-12-03T11:03:30.695Z,102388.41
2022-12-03T11:06:00.091Z,102392.63
2022-12-03T11:08:34.959Z,102394.28
2022-12-03T11:11:16.981Z,102389.06
2022-12-03T11:13:47.563Z,102387.22
2022-12-03T11:16:34.594Z,102389.75
2022-12-03T11:19:02.153Z,102375.81
2022-12-03T11:21:31.718Z,102378.25
2022-12-03T11:24:18.872Z,102376.50
2022-12-03T11:26:45.167Z,102369.53
2022-12-03T11:29:14.661Z,102365.25
2022-12-03T11:31:46.602Z,102367.00
2022-12-03T11:34:18.825Z,102354.09
2022-12-03T11:37:13.320Z,102354.19
2022-12-03T11:39:52.387Z,102347.31
2022-12-03T11:42:28.337Z,102352.56
2022-12-03T11:45:03.832Z,102347.31
2022-12-03T11:47:31.424Z,102341.25
2022-12-03T11:49:58.032Z,102337.72
2022-12-03T11:52:31.405Z,102337.75
2022-12-03T11:55:04.164Z,102330.88
2022-12-03T11:57:34.716Z,102326.66
2022-12-03T12:00:06.959Z,102320.66
2022-12-03T12:02:38.686Z,102323.28
2022-12-03T12:05:34.796Z,102318.91
2022-12-03T12:08:02.769Z,102316.28
2022-12-03T12:10:49.027Z,102321.41
2022-12-03T12:13:30.793Z,102316.19
2022-12-03T12:16:01.691Z,102322.25
2022-12-03T12:18:37.120Z,102319.59
2022-12-03T12:21:42.033Z,102304.88
2022-12-03T12:24:47.471Z,102298.84
2022-12-03T12:27:33.310Z,102287.66
2022-12-03T12:30:14.126Z,102279.88
2022-12-03T12:32:40.930Z,102282.56
2022-12-03T12:35:15.738Z,102283.34
2022-12-03T12:37:59.770Z,102274.69
2022-12-03T12:40:29.916Z,102280.69
2022-12-03T12:42:59.493Z,102275.44
2022-12-03T12:45:29.097Z,102272.81
2022-12-03T12:48:14.756Z,102277.09
2022-12-03T12:50:44.220Z,102271.88
2022-12-03T12:53:10.502Z,102264.03
2022-12-03T12:55:38.389Z,102264.88
2022-12-03T12:58:16.943Z,102259.69
2022-12-03T13:00:48.841Z,102259.69
2022-12-03T13:03:17.559Z,102257.13
2022-12-03T13:05:46.903Z,102247.63
2022-12-03T13:08:24.427Z,102252.00
2022-12-03T13:10:53.692Z,102249.44
2022-12-03T13:13:24.721Z,102244.28
2022-12-03T13:16:17.813Z,102245.25
2022-12-03T13:18:55.151Z,102245.25
2022-12-03T13:21:33.465Z,102239.22
2022-12-03T13:24:00.839Z,102238.34
2022-12-03T13:26:39.611Z,102242.66
2022-12-03T13:29:18.243Z,102241.75
2022-12-03T13:31:54.420Z,102247.78
2022-12-03T13:34:27.722Z,102242.59
2022-12-03T13:36:58.063Z,102242.53
2022-12-03T13:39:35.057Z,102246.00
2022-12-03T13:42:37.007Z,102243.41
2022-12-03T13:45:06.724Z,102241.69
2022-12-03T13:47:33.062Z,102251.19
2022-12-03T13:50:04.258Z,102254.63
2022-12-03T13:52:32.573Z,102251.94
2022-12-03T13:54:59.002Z,102249.34
2022-12-03T13:57:25.340Z,102244.13
2022-12-03T13:59:52.271Z,102244.97
2022-12-03T14:02:18.974Z,102236.31
2022-12-03T14:04:45.528Z,102245.81
2022-12-03T14:07:12.086Z,102241.53
2022-12-03T14:09:38.492Z,102238.91
2022-12-03T14:12:23.811Z,102242.34
2022-12-03T14:14:50.151Z,102242.28
2022-12-03T14:17:16.608Z,102234.47
2022-12-03T14:19:43.520Z,102235.34
2022-12-03T14:22:09.993Z,102235.34
2022-12-03T14:24:37.317Z,102226.66
2022-12-03T14:27:03.852Z,102222.31
2022-12-03T14:29:30.336Z,102228.38
2022-12-03T14:31:56.806Z,102234.34
2022-12-03T14:34:23.342Z,102231.75
2022-12-03T14:36:50.397Z,102222.22
2022-12-03T14:39:16.855Z,102228.22
2022-12-03T14:42:01.697Z,102227.41
2022-12-03T14:44:28.143Z,102232.59
2022-12-03T14:46:57.302Z,102226.50
2022-12-03T14:49:24.396Z,102227.34
2022-12-03T14:51:50.788Z,102217.84
2022-12-03T14:54:17.125Z,102224.78
2022-12-03T14:56:43.576Z,102217.88
2022-12-03T14:59:10.001Z,102223.06
2022-12-03T15:01:36.353Z,102210.97
2022-12-03T15:04:02.890Z,102215.25
2022-12-03T15:06:29.243Z,102224.69
2022-12-03T15:08:55.604Z,102215.16
2022-12-03T15:11:22.122Z,102221.19
2022-12-03T15:13:48.662Z,102218.59
2022-12-03T15:16:15.414Z,102222.91
2022-12-03T15:18:41.885Z,102219.44
2022-12-03T15:21:08.249Z,102217.75
2022-12-03T15:23:34.665Z,102217.75
2022-12-03T15:26:01.021Z,102214.28
2022-12-03T15:28:27.625Z,102221.22
2022-12-03T15:30:54.045Z,102209.13
2022-12-03T15:33:20.493Z,102208.25
2022-12-03T15:35:46.879Z,102216.06
2022-12-03T15:38:13.464Z,102216.91
2022-12-03T15:40:39.959Z,102210.84
2022-12-03T15:43:07.779Z,102208.25
2022-12-03T15:45:34.406Z,102206.53
2022-12-03T15:48:01.425Z,102205.69
2022-12-03T15:50:28.389Z,102209.13
2022-12-03T15:52:54.844Z,102214.25
2022-12-03T15:55:21.781Z,102204.72
2022-12-03T15:57:49.179Z,102202.03
2022-12-03T16:00:16.990Z,102205.44
2022-12-03T16:02:49.104Z,102194.97
2022-12-03T16:05:18.873Z,102199.22
2022-12-03T16:07:45.372Z,102199.13
2022-12-03T16:10:12.059Z,102200.84
2022-12-03T16:12:38.432Z,102202.59
2022-12-03T16:15:05.621Z,102206.13
2022-12-03T16:17:32.166Z,102205.25
2022-12-03T16:19:58.492Z,102198.28
2022-12-03T16:22:25.153Z,102200.81
2022-12-03T16:24:51.589Z,102198.19
2022-12-03T16:27:22.749Z,102198.19
2022-12-03T16:29:52.094Z,102190.38
2022-12-03T16:32:18.703Z,102193.78
2022-12-03T16:34:45.085Z,102194.59
2022-12-03T16:37:11.636Z,102197.13
2022-12-03T16:39:46.769Z,102201.47
2022-12-03T16:42:17.260Z,102202.34
2022-12-03T16:45:02.699Z,102203.19
2022-12-03T16:47:33.585Z,102201.47
2022-12-03T16:50:01.788Z,102194.59
2022-12-03T16:52:28.218Z,102197.19
2022-12-03T16:54:54.587Z,102200.63
2022-12-03T16:57:20.966Z,102198.91
2022-12-03T16:59:47.295Z,102199.78
2022-12-03T17:02:13.997Z,102204.97
2022-12-03T17:04:40.592Z,102196.31
2022-12-03T17:07:06.940Z,102192.88
2022-12-03T17:09:33.337Z,102195.53
2022-12-03T17:11:59.680Z,102194.72
2022-12-03T17:14:31.451Z,102196.47
2022-12-03T17:16:59.571Z,102196.44
2022-12-03T17:19:26.041Z,102186.13
2022-12-03T17:21:54.082Z,102190.44
2022-12-03T17:24:21.354Z,102187.88
2022-12-03T17:26:47.931Z,102187.88
2022-12-03T17:29:14.302Z,102185.31
2022-12-03T17:31:42.467Z,102187.91
2022-12-03T17:34:09.703Z,102184.44
2022-12-03T17:36:36.109Z,102186.16
2022-12-03T17:39:02.608Z,102178.38
2022-12-03T17:41:28.965Z,102175.78
2022-12-03T17:43:55.333Z,102186.16
2022-12-03T17:46:21.945Z,102175.81
2022-12-03T17:48:48.383Z,102175.78
2022-12-03T17:51:14.825Z,102167.13
2022-12-03T17:53:41.263Z,102174.06
2022-12-03T17:56:07.699Z,102174.94
2022-12-03T17:58:34.631Z,102168.94
2022-12-03T18:01:03.288Z,102169.00
2022-12-03T18:03:30.314Z,102179.38
2022-12-03T18:05:56.818Z,102171.59
2022-12-03T18:08:23.392Z,102175.03
2022-12-03T18:10:50.082Z,102183.56
2022-12-03T18:13:16.524Z,102182.69
2022-12-03T18:15:42.963Z,102177.47
2022-12-03T18:18:09.392Z,102174.88
2022-12-03T18:20:35.838Z,102179.19
2022-12-03T18:23:02.473Z,102170.50
2022-12-03T18:25:29.613Z,102175.63
2022-12-03T18:27:56.552Z,102183.41
2022-12-03T18:30:22.925Z,102178.25
2022-12-03T18:32:50.654Z,102189.47
2022-12-03T18:35:17.125Z,102189.47
2022-12-03T18:37:43.718Z,102190.38
2022-12-03T18:40:22.322Z,102192.09
2022-12-03T18:42:48.778Z,102196.44
2022-12-03T18:45:16.340Z,102192.94
2022-12-03T18:47:43.230Z,102193.75
2022-12-03T18:50:11.554Z,102185.94
2022-12-03T18:52:38.035Z,102184.22
2022-12-03T18:55:05.568Z,102186.78
2022-12-03T18:57:32.039Z,102191.00
2022-12-03T18:59:58.649Z,102197.91
2022-12-03T19:03:01.363Z,102195.34
2022-12-03T19:05:11.783Z,102187.50
2022-12-03T19:07:38.217Z,102193.53
2022-12-03T19:10:05.304Z,102195.19
2022-12-03T19:12:32.754Z,102184.81
2022-12-03T19:14:59.283Z,102188.34
2022-12-03T19:17:27.126Z,102183.97
2022-12-03T19:19:54.276Z,102192.59
2022-12-03T19:22:20.967Z,102193.44
2022-12-03T19:24:47.312Z,102189.91
2022-12-03T19:27:14.107Z,102194.13
2022-12-03T19:29:40.601Z,102184.66
2022-12-03T19:32:07.253Z,102183.88
2022-12-03T19:34:33.713Z,102181.28
2022-12-03T19:37:00.095Z,102187.25
2022-12-03T19:39:26.664Z,102182.88
2022-12-03T19:41:53.029Z,102189.75
2022-12-03T19:44:19.545Z,102192.22
2022-12-03T19:46:45.950Z,102193.06
2022-12-03T19:49:12.406Z,102193.97
2022-12-03T19:51:38.787Z,102191.44
2022-12-03T19:54:07.550Z,102200.03
2022-12-03T19:56:35.134Z,102205.19
2022-12-03T19:59:02.225Z,102199.91
2022-12-03T20:01:30.850Z,102201.56
2022-12-03T20:03:59.178Z,102193.78
2022-12-03T20:06:28.926Z,102203.28
2022-12-03T20:08:59.314Z,102199.88
2022-12-03T20:11:28.727Z,102203.28
2022-12-03T20:13:57.002Z,102205.00
2022-12-03T20:16:24.656Z,102200.66
2022-12-03T20:18:55.414Z,102205.00
2022-12-03T20:21:21.788Z,102207.56
2022-12-03T20:23:48.382Z,102202.34
2022-12-03T20:26:18.380Z,102204.06
2022-12-03T20:28:44.733Z,102210.06
2022-12-03T20:31:14.376Z,102207.47
2022-12-03T20:33:43.119Z,102209.97
2022-12-03T20:36:11.154Z,102210.00
2022-12-03T20:38:38.298Z,102208.22
2022-12-03T20:41:10.301Z,102210.84
2022-12-03T20:43:37.073Z,102210.75
2022-12-03T20:46:07.926Z,102204.63
2022-12-03T20:48:35.107Z,102207.19
2022-12-03T20:51:06.190Z,102207.13
2022-12-03T20:53:33.132Z,102208.78
2022-12-03T20:56:01.018Z,102203.56
2022-12-03T20:58:28.196Z,102196.78
2022-12-03T21:00:54.738Z,102206.28
2022-12-03T21:03:21.393Z,102201.94
2022-12-03T21:05:47.961Z,102204.50
2022-12-03T21:08:15.287Z,102205.31
2022-12-03T21:10:45.271Z,102204.41
2022-12-03T21:13:13.823Z,102207.78
2022-12-03T21:15:40.957Z,102206.72
2022-12-03T21:18:08.879Z,102205.00
2022-12-03T21:20:43.165Z,102205.06
2022-12-03T21:23:09.716Z,102206.84
2022-12-03T21:25:37.125Z,102207.78
2022-12-03T21:28:05.223Z,102206.84
2022-12-03T21:30:32.381Z,102203.38
2022-12-03T21:32:58.962Z,102205.06
2022-12-03T21:35:25.617Z,102206.75
2022-12-03T21:37:52.152Z,102202.47
2022-12-03T21:40:19.226Z,102218.00
2022-12-03T21:42:45.666Z,102200.78
2022-12-03T21:45:12.091Z,102210.25
2022-12-03T21:47:38.546Z,102211.09
2022-12-03T21:50:07.225Z,102211.91
2022-12-03T21:52:34.818Z,102210.97
2022-12-03T21:55:01.235Z,102210.09
2022-12-03T21:57:27.662Z,102198.88
2022-12-03T21:59:55.369Z,102202.34
2022-12-03T22:02:22.322Z,102215.34
2022-12-03T22:04:50.117Z,102209.31
2022-12-03T22:07:16.549Z,102209.28
2022-12-03T22:09:43.112Z,102206.59
2022-12-03T22:12:09.452Z,102207.41
2022-12-03T22:14:35.837Z,102204.72
2022-12-03T22:17:02.313Z,102205.50
2022-12-03T22:19:29.360Z,102208.84
2022-12-03T22:21:56.202Z,102201.06
2022-12-03T22:24:23.673Z,102201.03
2022-12-03T22:26:52.127Z,102198.47
2022-12-03T22:29:18.590Z,102200.22
2022-12-03T22:31:44.975Z,102201.91
2022-12-03T22:34:11.409Z,102201.94
2022-12-03T22:36:37.817Z,102202.00
2022-12-03T22:39:04.787Z,102202.06
2022-12-03T22:41:31.180Z,102205.59
2022-12-03T22:43:57.602Z,102196.09
2022-12-03T22:46:24.383Z,102206.44
2022-12-03T22:48:50.945Z,102206.44
2022-12-03T22:51:20.390Z,102190.94
2022-12-03T22:53:47.787Z,102196.94
2022-12-03T22:56:14.576Z,102202.94
2022-12-03T22:58:41.329Z,102194.34
2022-12-03T23:01:08.138Z,102196.84
2022-12-03T23:03:34.771Z,102197.63
2022-12-03T23:06:01.175Z,102189.00
2022-12-03T23:08:27.678Z,102188.94
2022-12-03T23:10:54.052Z,102190.66
2022-12-03T23:13:20.764Z,102184.63
2022-12-03T23:15:49.799Z,102186.34
2022-12-03T23:18:17.333Z,102197.56
2022-12-03T23:20:46.398Z,102189.81
2022-12-03T23:23:13.000Z,102188.94
2022-12-03T23:25:39.563Z,102195.00
2022-12-03T23:28:06.487Z,102181.19
2022-12-03T23:30:37.397Z,102186.38
2022-12-03T23:33:04.870Z,102184.69
2022-12-03T23:35:32.178Z,102181.22
2022-12-03T23:37:58.793Z,102178.63
2022-12-03T23:40:25.154Z,102179.50
2022-12-03T23:42:51.636Z,102179.53
2022-12-03T23:45:17.978Z,102179.63
2022-12-03T23:47:44.330Z,102172.75
2022-12-03T23:50:11.076Z,102181.41
2022-12-03T23:52:37.847Z,102183.13
2022-12-03T23:55:04.516Z,102181.41
2022-12-03T23:57:30.967Z,102176.25
2022-12-03T23:59:57.573Z,102179.78
